Smiley Heights, California
Current Conditions -  °F | °C
As of 9:58 PM on Saturday 20 Dec 2014 (Local Time) from KRIV Reporting Station
Broken Clouds Broken Clouds  
Wind Chill: 49°   Ceiling: 1800
Heat Index: 49°   Visibility: 7mi
Dew Point: 49°   Wind: 0mph
Humidity: 100%   Direction: NA
Pressure: 30.17"   Gusts: NA
Location:  34.0057°N, 117.15°W
Report Text: KRIV 210558Z 00000KT 7SM BKN018 09/09 A3017 RMK AO2A SLPNO T00930093 10128 20076 50006
Loading
Personal Weather Stations






























Interactive Weather Map New forecast layout! Learn more

10-Day Weather Forecast

Advertisements
Track Severe Weather on mobile